sensor_id;sensor_type;location;lat;lon;timestamp;temperature;humidity
27026;DHT22;14565;48.626;8.978;2024-03-25T00:01:34;2.90;99.90
27026;DHT22;14565;48.626;8.978;2024-03-25T00:03:59;2.90;99.90
27026;DHT22;14565;48.626;8.978;2024-03-25T00:06:25;2.90;99.90
27026;DHT22;14565;48.626;8.978;2024-03-25T00:08:51;2.90;99.90
27026;DHT22;14565;48.626;8.978;2024-03-25T00:11:17;2.90;99.90
27026;DHT22;14565;48.626;8.978;2024-03-25T00:13:43;3.00;99.90
27026;DHT22;14565;48.626;8.978;2024-03-25T00:16:08;2.90;99.90
27026;DHT22;14565;48.626;8.978;2024-03-25T00:18:34;2.90;99.90
27026;DHT22;14565;48.626;8.978;2024-03-25T00:20:59;2.90;99.90
27026;DHT22;14565;48.626;8.978;2024-03-25T00:23:25;2.90;99.90
27026;DHT22;14565;48.626;8.978;2024-03-25T00:25:50;2.90;99.90
27026;DHT22;14565;48.626;8.978;2024-03-25T00:28:17;2.90;99.90
27026;DHT22;14565;48.626;8.978;2024-03-25T00:30:42;2.90;99.90
27026;DHT22;14565;48.626;8.978;2024-03-25T00:33:08;2.90;99.90
27026;DHT22;14565;48.626;8.978;2024-03-25T00:35:34;2.90;99.90
27026;DHT22;14565;48.626;8.978;2024-03-25T00:38:00;2.90;99.90
27026;DHT22;14565;48.626;8.978;2024-03-25T00:40:26;2.90;99.90
27026;DHT22;14565;48.626;8.978;2024-03-25T00:42:52;2.80;99.90
27026;DHT22;14565;48.626;8.978;2024-03-25T00:45:17;2.80;99.90
27026;DHT22;14565;48.626;8.978;2024-03-25T00:47:43;2.80;99.90
27026;DHT22;14565;48.626;8.978;2024-03-25T00:50:09;2.90;99.90
27026;DHT22;14565;48.626;8.978;2024-03-25T00:52:35;2.90;99.90
27026;DHT22;14565;48.626;8.978;2024-03-25T00:55:01;2.90;99.90
27026;DHT22;14565;48.626;8.978;2024-03-25T00:57:26;3.00;99.90
27026;DHT22;14565;48.626;8.978;2024-03-25T00:59:52;3.00;99.90
27026;DHT22;14565;48.626;8.978;2024-03-25T01:02:18;3.00;99.90
27026;DHT22;14565;48.626;8.978;2024-03-25T01:04:43;3.00;99.90
27026;DHT22;14565;48.626;8.978;2024-03-25T01:07:09;3.00;99.90
27026;DHT22;14565;48.626;8.978;2024-03-25T01:09:35;3.10;99.90
27026;DHT22;14565;48.626;8.978;2024-03-25T01:12:01;3.10;99.90
27026;DHT22;14565;48.626;8.978;2024-03-25T01:14:26;3.00;99.90
27026;DHT22;14565;48.626;8.978;2024-03-25T01:16:52;3.10;99.90
27026;DHT22;14565;48.626;8.978;2024-03-25T01:19:18;3.20;99.90
27026;DHT22;14565;48.626;8.978;2024-03-25T01:21:43;3.10;99.90
27026;DHT22;14565;48.626;8.978;2024-03-25T01:24:10;3.10;99.90
27026;DHT22;14565;48.626;8.978;2024-03-25T01:26:35;3.10;99.90
27026;DHT22;14565;48.626;8.978;2024-03-25T01:29:02;3.10;99.90
27026;DHT22;14565;48.626;8.978;2024-03-25T01:31:27;3.10;99.90
27026;DHT22;14565;48.626;8.978;2024-03-25T01:33:53;3.10;99.90
27026;DHT22;14565;48.626;8.978;2024-03-25T01:36:18;3.10;99.90
27026;DHT22;14565;48.626;8.978;2024-03-25T01:38:44;3.10;99.90
27026;DHT22;14565;48.626;8.978;2024-03-25T01:41:11;3.10;99.90
27026;DHT22;14565;48.626;8.978;2024-03-25T01:43:37;3.10;99.90
27026;DHT22;14565;48.626;8.978;2024-03-25T01:46:03;3.10;99.90
27026;DHT22;14565;48.626;8.978;2024-03-25T01:48:29;3.10;99.90
27026;DHT22;14565;48.626;8.978;2024-03-25T01:50:56;3.10;99.90
27026;DHT22;14565;48.626;8.978;2024-03-25T01:53:23;3.10;99.90
27026;DHT22;14565;48.626;8.978;2024-03-25T01:55:50;3.00;99.90
27026;DHT22;14565;48.626;8.978;2024-03-25T01:58:18;3.00;99.90
27026;DHT22;14565;48.626;8.978;2024-03-25T02:00:44;3.00;99.90
27026;DHT22;14565;48.626;8.978;2024-03-25T02:03:10;3.00;99.90
27026;DHT22;14565;48.626;8.978;2024-03-25T02:05:35;3.00;99.90
27026;DHT22;14565;48.626;8.978;2024-03-25T02:08:03;3.00;99.90
27026;DHT22;14565;48.626;8.978;2024-03-25T02:10:29;3.00;99.90
27026;DHT22;14565;48.626;8.978;2024-03-25T02:12:55;3.00;99.90
27026;DHT22;14565;48.626;8.978;2024-03-25T02:15:21;3.00;99.90
27026;DHT22;14565;48.626;8.978;2024-03-25T02:17:47;2.90;99.90
27026;DHT22;14565;48.626;8.978;2024-03-25T02:20:13;2.90;99.90
27026;DHT22;14565;48.626;8.978;2024-03-25T02:22:41;3.00;99.90
27026;DHT22;14565;48.626;8.978;2024-03-25T02:25:08;2.90;99.90
27026;DHT22;14565;48.626;8.978;2024-03-25T02:27:38;3.00;99.90
27026;DHT22;14565;48.626;8.978;2024-03-25T02:32:34;3.00;99.90
27026;DHT22;14565;48.626;8.978;2024-03-25T02:35:05;3.00;99.90
27026;DHT22;14565;48.626;8.978;2024-03-25T02:37:32;3.00;99.90
27026;DHT22;14565;48.626;8.978;2024-03-25T02:39:59;2.90;99.90
27026;DHT22;14565;48.626;8.978;2024-03-25T02:42:31;3.00;99.90
27026;DHT22;14565;48.626;8.978;2024-03-25T02:44:57;2.90;99.90
27026;DHT22;14565;48.626;8.978;2024-03-25T02:47:24;2.90;99.90
27026;DHT22;14565;48.626;8.978;2024-03-25T02:49:50;2.90;99.90
27026;DHT22;14565;48.626;8.978;2024-03-25T02:52:17;2.90;99.90
27026;DHT22;14565;48.626;8.978;2024-03-25T02:54:42;3.00;99.90
27026;DHT22;14565;48.626;8.978;2024-03-25T02:57:08;2.90;99.90
27026;DHT22;14565;48.626;8.978;2024-03-25T02:59:34;2.90;99.90
27026;DHT22;14565;48.626;8.978;2024-03-25T03:01:59;2.90;99.90
27026;DHT22;14565;48.626;8.978;2024-03-25T03:04:25;2.80;99.90
27026;DHT22;14565;48.626;8.978;2024-03-25T03:06:50;2.80;99.90
27026;DHT22;14565;48.626;8.978;2024-03-25T03:09:16;2.80;99.90
27026;DHT22;14565;48.626;8.978;2024-03-25T03:11:41;2.80;99.90
27026;DHT22;14565;48.626;8.978;2024-03-25T03:14:07;2.80;99.90
27026;DHT22;14565;48.626;8.978;2024-03-25T03:16:33;2.80;99.90
27026;DHT22;14565;48.626;8.978;2024-03-25T03:18:58;2.80;99.90
27026;DHT22;14565;48.626;8.978;2024-03-25T03:21:24;2.80;99.90
27026;DHT22;14565;48.626;8.978;2024-03-25T03:23:50;2.80;99.90
27026;DHT22;14565;48.626;8.978;2024-03-25T03:26:15;2.80;99.90
27026;DHT22;14565;48.626;8.978;2024-03-25T03:28:41;2.80;99.90
27026;DHT22;14565;48.626;8.978;2024-03-25T03:31:07;2.80;99.90
27026;DHT22;14565;48.626;8.978;2024-03-25T03:33:32;2.70;99.90
27026;DHT22;14565;48.626;8.978;2024-03-25T03:35:58;2.70;99.90
27026;DHT22;14565;48.626;8.978;2024-03-25T03:38:24;2.70;99.90
27026;DHT22;14565;48.626;8.978;2024-03-25T03:40:59;2.70;99.90
27026;DHT22;14565;48.626;8.978;2024-03-25T03:43:25;2.70;99.90
27026;DHT22;14565;48.626;8.978;2024-03-25T03:45:51;2.70;99.90
27026;DHT22;14565;48.626;8.978;2024-03-25T03:48:17;2.60;99.90
27026;DHT22;14565;48.626;8.978;2024-03-25T03:50:43;2.60;99.90
27026;DHT22;14565;48.626;8.978;2024-03-25T03:53:08;2.70;99.90
27026;DHT22;14565;48.626;8.978;2024-03-25T03:55:34;2.60;99.90
27026;DHT22;14565;48.626;8.978;2024-03-25T03:58:00;2.60;99.90
27026;DHT22;14565;48.626;8.978;2024-03-25T04:00:26;2.70;99.90
27026;DHT22;14565;48.626;8.978;2024-03-25T04:02:52;2.70;99.90
27026;DHT22;14565;48.626;8.978;2024-03-25T04:05:18;2.60;99.90
27026;DHT22;14565;48.626;8.978;2024-03-25T04:07:44;2.60;99.90
27026;DHT22;14565;48.626;8.978;2024-03-25T04:10:09;2.60;99.90
27026;DHT22;14565;48.626;8.978;2024-03-25T04:12:36;2.50;99.90
27026;DHT22;14565;48.626;8.978;2024-03-25T04:15:05;2.50;99.90
27026;DHT22;14565;48.626;8.978;2024-03-25T04:17:31;2.50;99.90
27026;DHT22;14565;48.626;8.978;2024-03-25T04:19:59;2.40;99.90
27026;DHT22;14565;48.626;8.978;2024-03-25T04:22:26;2.60;99.90
27026;DHT22;14565;48.626;8.978;2024-03-25T04:24:51;2.40;99.90
27026;DHT22;14565;48.626;8.978;2024-03-25T04:27:17;2.40;99.90
27026;DHT22;14565;48.626;8.978;2024-03-25T04:29:46;2.40;99.90
27026;DHT22;14565;48.626;8.978;2024-03-25T04:32:12;2.40;99.90
27026;DHT22;14565;48.626;8.978;2024-03-25T04:34:37;2.50;99.90
27026;DHT22;14565;48.626;8.978;2024-03-25T04:37:03;2.40;99.90
27026;DHT22;14565;48.626;8.978;2024-03-25T04:39:30;2.50;99.90
27026;DHT22;14565;48.626;8.978;2024-03-25T04:41:55;2.60;99.90
27026;DHT22;14565;48.626;8.978;2024-03-25T04:44:22;2.40;99.90
27026;DHT22;14565;48.626;8.978;2024-03-25T04:46:47;2.50;99.90
27026;DHT22;14565;48.626;8.978;2024-03-25T04:49:13;2.40;99.90
27026;DHT22;14565;48.626;8.978;2024-03-25T04:51:39;2.40;99.90
27026;DHT22;14565;48.626;8.978;2024-03-25T04:54:05;2.40;99.90
27026;DHT22;14565;48.626;8.978;2024-03-25T04:56:30;2.40;99.90
27026;DHT22;14565;48.626;8.978;2024-03-25T04:58:57;2.40;99.90
27026;DHT22;14565;48.626;8.978;2024-03-25T05:01:27;2.30;99.90
27026;DHT22;14565;48.626;8.978;2024-03-25T05:03:53;2.30;99.90
27026;DHT22;14565;48.626;8.978;2024-03-25T05:06:18;2.30;99.90
27026;DHT22;14565;48.626;8.978;2024-03-25T05:08:44;2.20;99.90
27026;DHT22;14565;48.626;8.978;2024-03-25T05:11:09;2.30;99.90
27026;DHT22;14565;48.626;8.978;2024-03-25T05:13:35;2.30;99.90
27026;DHT22;14565;48.626;8.978;2024-03-25T05:16:02;2.30;99.90
27026;DHT22;14565;48.626;8.978;2024-03-25T05:18:28;2.30;99.90
27026;DHT22;14565;48.626;8.978;2024-03-25T05:20:53;2.40;99.90
27026;DHT22;14565;48.626;8.978;2024-03-25T05:23:19;2.30;99.90
27026;DHT22;14565;48.626;8.978;2024-03-25T05:25:44;2.30;99.90
27026;DHT22;14565;48.626;8.978;2024-03-25T05:28:10;2.40;99.90
27026;DHT22;14565;48.626;8.978;2024-03-25T05:30:35;2.40;99.90
27026;DHT22;14565;48.626;8.978;2024-03-25T05:33:01;2.40;99.90
27026;DHT22;14565;48.626;8.978;2024-03-25T05:35:27;2.40;99.90
27026;DHT22;14565;48.626;8.978;2024-03-25T05:37:53;2.40;99.90
27026;DHT22;14565;48.626;8.978;2024-03-25T05:40:18;2.40;99.90
27026;DHT22;14565;48.626;8.978;2024-03-25T05:42:47;2.40;99.90
27026;DHT22;14565;48.626;8.978;2024-03-25T05:45:13;2.50;99.90
27026;DHT22;14565;48.626;8.978;2024-03-25T05:47:38;2.50;99.90
27026;DHT22;14565;48.626;8.978;2024-03-25T05:50:04;2.50;99.90
27026;DHT22;14565;48.626;8.978;2024-03-25T05:52:31;2.50;99.90
27026;DHT22;14565;48.626;8.978;2024-03-25T05:54:57;2.60;99.90
27026;DHT22;14565;48.626;8.978;2024-03-25T05:57:23;2.60;99.90
27026;DHT22;14565;48.626;8.978;2024-03-25T05:59:48;2.60;99.90
27026;DHT22;14565;48.626;8.978;2024-03-25T06:02:14;2.50;99.90
27026;DHT22;14565;48.626;8.978;2024-03-25T06:04:40;2.60;99.90
27026;DHT22;14565;48.626;8.978;2024-03-25T06:07:05;2.60;99.90
27026;DHT22;14565;48.626;8.978;2024-03-25T06:09:31;2.50;99.90
27026;DHT22;14565;48.626;8.978;2024-03-25T06:11:57;2.50;99.90
27026;DHT22;14565;48.626;8.978;2024-03-25T06:14:22;2.60;99.90
27026;DHT22;14565;48.626;8.978;2024-03-25T06:16:48;2.60;99.90
27026;DHT22;14565;48.626;8.978;2024-03-25T06:19:13;2.80;99.90
27026;DHT22;14565;48.626;8.978;2024-03-25T06:21:39;2.70;99.90
27026;DHT22;14565;48.626;8.978;2024-03-25T06:24:05;2.80;99.90
27026;DHT22;14565;48.626;8.978;2024-03-25T06:26:30;2.90;99.90
27026;DHT22;14565;48.626;8.978;2024-03-25T06:28:56;2.80;99.90
27026;DHT22;14565;48.626;8.978;2024-03-25T06:31:22;2.80;99.90
27026;DHT22;14565;48.626;8.978;2024-03-25T06:34:06;2.90;99.90
27026;DHT22;14565;48.626;8.978;2024-03-25T06:36:45;3.00;99.90
27026;DHT22;14565;48.626;8.978;2024-03-25T06:39:12;3.00;99.90
27026;DHT22;14565;48.626;8.978;2024-03-25T06:41:38;3.10;99.90
27026;DHT22;14565;48.626;8.978;2024-03-25T06:44:04;3.10;99.90
27026;DHT22;14565;48.626;8.978;2024-03-25T06:46:30;3.00;99.90
27026;DHT22;14565;48.626;8.978;2024-03-25T06:48:56;3.20;99.90
27026;DHT22;14565;48.626;8.978;2024-03-25T06:51:21;3.30;99.90
27026;DHT22;14565;48.626;8.978;2024-03-25T06:53:47;3.60;99.90
27026;DHT22;14565;48.626;8.978;2024-03-25T06:56:13;3.60;99.90
27026;DHT22;14565;48.626;8.978;2024-03-25T06:58:38;3.60;99.90
27026;DHT22;14565;48.626;8.978;2024-03-25T07:01:08;3.90;99.90
27026;DHT22;14565;48.626;8.978;2024-03-25T07:03:34;4.00;99.90
27026;DHT22;14565;48.626;8.978;2024-03-25T07:06:01;4.10;99.90
27026;DHT22;14565;48.626;8.978;2024-03-25T07:08:27;4.10;99.90
27026;DHT22;14565;48.626;8.978;2024-03-25T07:10:54;4.10;99.90
27026;DHT22;14565;48.626;8.978;2024-03-25T07:13:19;4.50;99.90
27026;DHT22;14565;48.626;8.978;2024-03-25T07:15:45;4.30;99.90
27026;DHT22;14565;48.626;8.978;2024-03-25T07:18:11;4.30;99.90
27026;DHT22;14565;48.626;8.978;2024-03-25T07:20:38;4.60;99.90
27026;DHT22;14565;48.626;8.978;2024-03-25T07:23:04;4.50;99.90
27026;DHT22;14565;48.626;8.978;2024-03-25T07:25:30;4.50;99.90
27026;DHT22;14565;48.626;8.978;2024-03-25T07:27:56;4.60;99.90
27026;DHT22;14565;48.626;8.978;2024-03-25T07:30:21;5.00;99.90
27026;DHT22;14565;48.626;8.978;2024-03-25T07:32:54;5.60;99.90
27026;DHT22;14565;48.626;8.978;2024-03-25T07:35:20;5.90;99.90
27026;DHT22;14565;48.626;8.978;2024-03-25T07:37:45;6.40;99.90
27026;DHT22;14565;48.626;8.978;2024-03-25T07:40:11;6.70;99.90
27026;DHT22;14565;48.626;8.978;2024-03-25T07:42:40;6.30;99.90
27026;DHT22;14565;48.626;8.978;2024-03-25T07:45:06;6.50;99.90
27026;DHT22;14565;48.626;8.978;2024-03-25T07:47:35;7.00;99.90
27026;DHT22;14565;48.626;8.978;2024-03-25T07:50:00;6.90;99.90
27026;DHT22;14565;48.626;8.978;2024-03-25T07:52:26;7.10;99.90
27026;DHT22;14565;48.626;8.978;2024-03-25T07:54:52;7.30;99.90
27026;DHT22;14565;48.626;8.978;2024-03-25T07:57:18;7.30;99.90
27026;DHT22;14565;48.626;8.978;2024-03-25T07:59:45;7.50;99.90
27026;DHT22;14565;48.626;8.978;2024-03-25T08:02:10;7.70;99.90
27026;DHT22;14565;48.626;8.978;2024-03-25T08:04:36;7.90;99.90
27026;DHT22;14565;48.626;8.978;2024-03-25T08:07:02;7.90;99.90
27026;DHT22;14565;48.626;8.978;2024-03-25T08:09:28;7.70;99.90
27026;DHT22;14565;48.626;8.978;2024-03-25T08:11:54;7.80;99.90
27026;DHT22;14565;48.626;8.978;2024-03-25T08:14:20;8.00;99.90
27026;DHT22;14565;48.626;8.978;2024-03-25T08:16:45;8.30;99.90
27026;DHT22;14565;48.626;8.978;2024-03-25T08:19:11;9.10;99.90
27026;DHT22;14565;48.626;8.978;2024-03-25T08:21:37;8.40;99.90
27026;DHT22;14565;48.626;8.978;2024-03-25T08:24:03;8.60;99.90
27026;DHT22;14565;48.626;8.978;2024-03-25T08:26:29;8.40;99.90
27026;DHT22;14565;48.626;8.978;2024-03-25T08:28:55;8.40;99.90
27026;DHT22;14565;48.626;8.978;2024-03-25T08:31:20;8.20;99.90
27026;DHT22;14565;48.626;8.978;2024-03-25T08:33:46;8.80;99.90
27026;DHT22;14565;48.626;8.978;2024-03-25T08:36:11;8.90;99.90
27026;DHT22;14565;48.626;8.978;2024-03-25T08:38:37;9.20;99.90
27026;DHT22;14565;48.626;8.978;2024-03-25T08:41:03;8.60;99.90
27026;DHT22;14565;48.626;8.978;2024-03-25T08:43:29;8.60;99.90
27026;DHT22;14565;48.626;8.978;2024-03-25T08:45:55;8.30;99.90
27026;DHT22;14565;48.626;8.978;2024-03-25T08:48:21;9.20;99.90
27026;DHT22;14565;48.626;8.978;2024-03-25T08:50:47;8.40;99.90
27026;DHT22;14565;48.626;8.978;2024-03-25T08:53:12;9.10;99.90
27026;DHT22;14565;48.626;8.978;2024-03-25T08:55:38;10.00;99.90
27026;DHT22;14565;48.626;8.978;2024-03-25T08:58:04;8.90;99.90
27026;DHT22;14565;48.626;8.978;2024-03-25T09:00:30;9.40;99.90
27026;DHT22;14565;48.626;8.978;2024-03-25T09:02:56;8.90;99.90
27026;DHT22;14565;48.626;8.978;2024-03-25T09:05:22;8.60;99.90
27026;DHT22;14565;48.626;8.978;2024-03-25T09:07:51;8.00;99.90
27026;DHT22;14565;48.626;8.978;2024-03-25T09:10:20;7.90;99.90
27026;DHT22;14565;48.626;8.978;2024-03-25T09:13:05;8.10;99.90
27026;DHT22;14565;48.626;8.978;2024-03-25T09:15:30;7.70;99.90
27026;DHT22;14565;48.626;8.978;2024-03-25T09:17:56;7.80;99.90
27026;DHT22;14565;48.626;8.978;2024-03-25T09:20:22;8.10;99.90
27026;DHT22;14565;48.626;8.978;2024-03-25T09:22:49;8.10;99.90
27026;DHT22;14565;48.626;8.978;2024-03-25T09:25:15;7.90;99.90
27026;DHT22;14565;48.626;8.978;2024-03-25T09:27:45;8.00;99.90
27026;DHT22;14565;48.626;8.978;2024-03-25T09:30:11;8.10;99.90
27026;DHT22;14565;48.626;8.978;2024-03-25T09:32:36;7.60;99.90
27026;DHT22;14565;48.626;8.978;2024-03-25T09:35:03;7.90;99.90
27026;DHT22;14565;48.626;8.978;2024-03-25T09:37:29;8.30;99.90
27026;DHT22;14565;48.626;8.978;2024-03-25T09:39:55;8.50;99.90
27026;DHT22;14565;48.626;8.978;2024-03-25T09:42:26;8.20;99.90
27026;DHT22;14565;48.626;8.978;2024-03-25T09:44:56;8.60;99.90
27026;DHT22;14565;48.626;8.978;2024-03-25T09:47:25;8.90;99.90
27026;DHT22;14565;48.626;8.978;2024-03-25T09:49:53;8.90;99.90
27026;DHT22;14565;48.626;8.978;2024-03-25T09:52:19;9.10;99.90
27026;DHT22;14565;48.626;8.978;2024-03-25T09:54:45;9.90;99.90
27026;DHT22;14565;48.626;8.978;2024-03-25T09:57:11;10.40;99.90
27026;DHT22;14565;48.626;8.978;2024-03-25T09:59:37;10.10;99.90
27026;DHT22;14565;48.626;8.978;2024-03-25T10:02:03;9.60;99.00
27026;DHT22;14565;48.626;8.978;2024-03-25T10:04:29;9.40;98.40
27026;DHT22;14565;48.626;8.978;2024-03-25T10:06:55;9.20;99.90
27026;DHT22;14565;48.626;8.978;2024-03-25T10:09:22;8.90;98.00
27026;DHT22;14565;48.626;8.978;2024-03-25T10:11:48;8.90;99.90
27026;DHT22;14565;48.626;8.978;2024-03-25T10:14:17;9.00;99.90
27026;DHT22;14565;48.626;8.978;2024-03-25T10:16:44;9.40;99.90
27026;DHT22;14565;48.626;8.978;2024-03-25T10:19:11;8.90;99.90
27026;DHT22;14565;48.626;8.978;2024-03-25T10:21:36;9.20;99.90
27026;DHT22;14565;48.626;8.978;2024-03-25T10:24:04;9.00;99.90
27026;DHT22;14565;48.626;8.978;2024-03-25T10:26:31;9.00;99.90
27026;DHT22;14565;48.626;8.978;2024-03-25T10:29:07;9.00;99.90
27026;DHT22;14565;48.626;8.978;2024-03-25T10:31:33;9.10;99.90
27026;DHT22;14565;48.626;8.978;2024-03-25T10:33:59;9.50;99.90
27026;DHT22;14565;48.626;8.978;2024-03-25T10:36:25;9.80;99.90
27026;DHT22;14565;48.626;8.978;2024-03-25T10:38:56;8.80;99.60
27026;DHT22;14565;48.626;8.978;2024-03-25T10:41:22;8.00;99.90
27026;DHT22;14565;48.626;8.978;2024-03-25T10:43:48;7.90;99.90
27026;DHT22;14565;48.626;8.978;2024-03-25T10:46:19;7.90;99.90
27026;DHT22;14565;48.626;8.978;2024-03-25T10:48:54;8.30;99.90
27026;DHT22;14565;48.626;8.978;2024-03-25T10:51:22;8.50;99.90
27026;DHT22;14565;48.626;8.978;2024-03-25T10:53:52;8.70;99.90
27026;DHT22;14565;48.626;8.978;2024-03-25T10:56:22;9.00;99.90
27026;DHT22;14565;48.626;8.978;2024-03-25T10:58:49;8.70;99.90
27026;DHT22;14565;48.626;8.978;2024-03-25T11:01:19;8.40;99.90
27026;DHT22;14565;48.626;8.978;2024-03-25T11:03:46;8.80;99.90
27026;DHT22;14565;48.626;8.978;2024-03-25T11:06:13;8.90;99.70
27026;DHT22;14565;48.626;8.978;2024-03-25T11:08:39;9.10;99.00
27026;DHT22;14565;48.626;8.978;2024-03-25T11:11:07;9.10;97.80
27026;DHT22;14565;48.626;8.978;2024-03-25T11:13:33;8.90;98.00
27026;DHT22;14565;48.626;8.978;2024-03-25T11:15:59;8.60;98.10
27026;DHT22;14565;48.626;8.978;2024-03-25T11:18:26;9.00;98.30
27026;DHT22;14565;48.626;8.978;2024-03-25T11:21:28;8.60;98.10
27026;DHT22;14565;48.626;8.978;2024-03-25T11:23:54;8.90;99.40
27026;DHT22;14565;48.626;8.978;2024-03-25T11:26:24;8.50;99.20
27026;DHT22;14565;48.626;8.978;2024-03-25T11:28:50;8.50;99.10
27026;DHT22;14565;48.626;8.978;2024-03-25T11:31:16;8.60;99.30
27026;DHT22;14565;48.626;8.978;2024-03-25T11:33:44;8.60;99.90
27026;DHT22;14565;48.626;8.978;2024-03-25T11:36:10;8.70;98.90
27026;DHT22;14565;48.626;8.978;2024-03-25T11:38:37;8.30;98.90
27026;DHT22;14565;48.626;8.978;2024-03-25T11:41:05;8.30;99.90
27026;DHT22;14565;48.626;8.978;2024-03-25T11:43:32;8.40;99.90
27026;DHT22;14565;48.626;8.978;2024-03-25T11:45:58;8.60;99.90
27026;DHT22;14565;48.626;8.978;2024-03-25T11:48:24;8.60;99.40
27026;DHT22;14565;48.626;8.978;2024-03-25T11:50:49;8.70;99.60
27026;DHT22;14565;48.626;8.978;2024-03-25T11:53:15;8.90;97.90
27026;DHT22;14565;48.626;8.978;2024-03-25T11:55:45;8.50;99.40
27026;DHT22;14565;48.626;8.978;2024-03-25T11:58:11;8.50;99.50
27026;DHT22;14565;48.626;8.978;2024-03-25T12:00:44;8.40;99.90
27026;DHT22;14565;48.626;8.978;2024-03-25T12:03:10;8.40;99.90
27026;DHT22;14565;48.626;8.978;2024-03-25T12:05:38;8.30;99.90
27026;DHT22;14565;48.626;8.978;2024-03-25T12:08:04;8.50;99.40
27026;DHT22;14565;48.626;8.978;2024-03-25T12:10:31;8.60;99.90
27026;DHT22;14565;48.626;8.978;2024-03-25T12:13:15;8.80;99.90
27026;DHT22;14565;48.626;8.978;2024-03-25T12:15:41;8.60;99.90
27026;DHT22;14565;48.626;8.978;2024-03-25T12:18:07;8.50;99.90
27026;DHT22;14565;48.626;8.978;2024-03-25T12:20:32;8.80;99.90
27026;DHT22;14565;48.626;8.978;2024-03-25T12:22:58;8.90;99.20
27026;DHT22;14565;48.626;8.978;2024-03-25T12:25:24;8.80;98.90
27026;DHT22;14565;48.626;8.978;2024-03-25T12:27:50;8.70;98.80
27026;DHT22;14565;48.626;8.978;2024-03-25T12:30:15;8.70;98.00
27026;DHT22;14565;48.626;8.978;2024-03-25T12:32:43;8.80;99.10
27026;DHT22;14565;48.626;8.978;2024-03-25T12:35:13;9.00;98.70
27026;DHT22;14565;48.626;8.978;2024-03-25T12:37:41;9.30;97.30
27026;DHT22;14565;48.626;8.978;2024-03-25T12:40:09;9.50;97.30
27026;DHT22;14565;48.626;8.978;2024-03-25T12:42:35;9.60;96.80
27026;DHT22;14565;48.626;8.978;2024-03-25T12:45:00;9.50;95.50
27026;DHT22;14565;48.626;8.978;2024-03-25T12:47:26;9.50;94.00
27026;DHT22;14565;48.626;8.978;2024-03-25T12:49:52;9.70;96.60
27026;DHT22;14565;48.626;8.978;2024-03-25T12:52:18;9.70;96.30
27026;DHT22;14565;48.626;8.978;2024-03-25T12:54:43;9.20;94.00
27026;DHT22;14565;48.626;8.978;2024-03-25T12:57:09;9.50;94.60
27026;DHT22;14565;48.626;8.978;2024-03-25T12:59:35;9.80;97.70
27026;DHT22;14565;48.626;8.978;2024-03-25T13:02:00;9.60;95.10
27026;DHT22;14565;48.626;8.978;2024-03-25T13:04:29;9.90;96.10
27026;DHT22;14565;48.626;8.978;2024-03-25T13:06:55;9.80;95.10
27026;DHT22;14565;48.626;8.978;2024-03-25T13:09:21;9.70;95.20
27026;DHT22;14565;48.626;8.978;2024-03-25T13:11:47;9.70;95.30
27026;DHT22;14565;48.626;8.978;2024-03-25T13:14:13;9.60;93.60
27026;DHT22;14565;48.626;8.978;2024-03-25T13:16:39;9.70;95.00
27026;DHT22;14565;48.626;8.978;2024-03-25T13:19:06;9.90;95.90
27026;DHT22;14565;48.626;8.978;2024-03-25T13:21:31;10.00;95.40
27026;DHT22;14565;48.626;8.978;2024-03-25T13:23:57;10.00;92.20
27026;DHT22;14565;48.626;8.978;2024-03-25T13:26:23;9.60;91.30
27026;DHT22;14565;48.626;8.978;2024-03-25T13:28:49;9.60;91.40
27026;DHT22;14565;48.626;8.978;2024-03-25T13:31:15;9.80;93.20
27026;DHT22;14565;48.626;8.978;2024-03-25T13:33:41;10.20;94.00
27026;DHT22;14565;48.626;8.978;2024-03-25T13:36:07;10.10;92.50
27026;DHT22;14565;48.626;8.978;2024-03-25T13:38:33;10.10;94.60
27026;DHT22;14565;48.626;8.978;2024-03-25T13:41:00;10.00;92.80
27026;DHT22;14565;48.626;8.978;2024-03-25T13:43:25;10.00;94.00
27026;DHT22;14565;48.626;8.978;2024-03-25T13:45:51;9.90;92.20
27026;DHT22;14565;48.626;8.978;2024-03-25T13:48:17;9.80;92.70
27026;DHT22;14565;48.626;8.978;2024-03-25T13:50:43;10.10;94.30
27026;DHT22;14565;48.626;8.978;2024-03-25T13:53:11;10.00;92.80
27026;DHT22;14565;48.626;8.978;2024-03-25T13:55:37;10.00;92.30
27026;DHT22;14565;48.626;8.978;2024-03-25T13:58:03;10.20;92.60
27026;DHT22;14565;48.626;8.978;2024-03-25T14:00:30;10.00;91.10
27026;DHT22;14565;48.626;8.978;2024-03-25T14:02:57;10.30;94.20
27026;DHT22;14565;48.626;8.978;2024-03-25T14:05:23;10.30;94.00
27026;DHT22;14565;48.626;8.978;2024-03-25T14:07:49;10.30;93.90
27026;DHT22;14565;48.626;8.978;2024-03-25T14:10:15;10.40;94.80
27026;DHT22;14565;48.626;8.978;2024-03-25T14:12:41;10.50;96.50
27026;DHT22;14565;48.626;8.978;2024-03-25T14:15:07;10.50;93.60
27026;DHT22;14565;48.626;8.978;2024-03-25T14:17:33;10.40;94.40
27026;DHT22;14565;48.626;8.978;2024-03-25T14:19:59;10.50;94.50
27026;DHT22;14565;48.626;8.978;2024-03-25T14:22:24;10.40;92.10
27026;DHT22;14565;48.626;8.978;2024-03-25T14:24:50;10.30;95.30
27026;DHT22;14565;48.626;8.978;2024-03-25T14:27:22;10.40;94.40
27026;DHT22;14565;48.626;8.978;2024-03-25T14:29:47;10.30;96.40
27026;DHT22;14565;48.626;8.978;2024-03-25T14:32:13;10.40;95.70
27026;DHT22;14565;48.626;8.978;2024-03-25T14:34:38;10.40;94.50
27026;DHT22;14565;48.626;8.978;2024-03-25T14:37:04;10.50;94.80
27026;DHT22;14565;48.626;8.978;2024-03-25T14:39:30;10.40;94.90
27026;DHT22;14565;48.626;8.978;2024-03-25T14:41:56;10.40;94.30
27026;DHT22;14565;48.626;8.978;2024-03-25T14:44:22;10.40;94.20
27026;DHT22;14565;48.626;8.978;2024-03-25T14:46:47;10.40;94.30
27026;DHT22;14565;48.626;8.978;2024-03-25T14:49:13;10.50;94.40
27026;DHT22;14565;48.626;8.978;2024-03-25T14:51:38;10.50;96.00
27026;DHT22;14565;48.626;8.978;2024-03-25T14:54:06;10.40;96.10
27026;DHT22;14565;48.626;8.978;2024-03-25T14:56:32;10.40;95.00
27026;DHT22;14565;48.626;8.978;2024-03-25T14:58:57;10.40;93.80
27026;DHT22;14565;48.626;8.978;2024-03-25T15:01:23;10.20;96.80
27026;DHT22;14565;48.626;8.978;2024-03-25T15:03:49;10.40;95.20
27026;DHT22;14565;48.626;8.978;2024-03-25T15:06:14;10.40;96.40
27026;DHT22;14565;48.626;8.978;2024-03-25T15:08:40;10.50;96.10
27026;DHT22;14565;48.626;8.978;2024-03-25T15:11:07;10.50;95.90
27026;DHT22;14565;48.626;8.978;2024-03-25T15:13:33;10.40;95.30
27026;DHT22;14565;48.626;8.978;2024-03-25T15:16:03;10.40;95.40
27026;DHT22;14565;48.626;8.978;2024-03-25T15:18:29;10.50;95.90
27026;DHT22;14565;48.626;8.978;2024-03-25T15:21:04;10.30;95.10
27026;DHT22;14565;48.626;8.978;2024-03-25T15:23:31;10.40;95.80
27026;DHT22;14565;48.626;8.978;2024-03-25T15:25:57;10.50;94.70
27026;DHT22;14565;48.626;8.978;2024-03-25T15:28:24;10.40;95.50
27026;DHT22;14565;48.626;8.978;2024-03-25T15:30:50;10.50;95.30
27026;DHT22;14565;48.626;8.978;2024-03-25T15:33:16;10.30;95.50
27026;DHT22;14565;48.626;8.978;2024-03-25T15:35:43;10.20;96.30
27026;DHT22;14565;48.626;8.978;2024-03-25T15:38:09;10.30;94.60
27026;DHT22;14565;48.626;8.978;2024-03-25T15:40:35;10.30;95.60
27026;DHT22;14565;48.626;8.978;2024-03-25T15:43:01;10.50;96.20